Time;durP1;ratioP1;P1;durP2;ratioP2;P2;SDS_P1;SDS_P2;PMS_P1;PMS_P2;Temp;Humidity;BMP_temperature;BMP_pressure;BME280_temperature;BME280_humidity;BME280_pressure;Samples;Min_cycle;Max_cycle;Signal;HPM_P1;HPM_P2
2023/10/27 00:01:24;;;;;;;33.05;23.30;;;;;;;;;;4987240;28;20051;-83
2023/10/27 00:03:50;;;;;;;32.90;23.38;;;;;;;;;;4984717;28;20118;-84
2023/10/27 00:06:17;;;;;;;33.22;23.55;;;;;;;;;;4985015;28;20117;-83
2023/10/27 00:08:43;;;;;;;33.97;22.92;;;;;;;;;;4985604;28;20078;-83
2023/10/27 00:11:09;;;;;;;31.00;22.02;;;;;;;;;;4984729;28;20041;-83
2023/10/27 00:13:35;;;;;;;32.00;21.65;;;;;;;;;;4984726;28;20046;-85
2023/10/27 00:16:06;;;;;;;30.10;21.55;;;;;;;;;;4983040;28;20484;-83
2023/10/27 00:18:32;;;;;;;29.45;21.08;;;;;;;;;;4983498;28;20110;-83
2023/10/27 00:20:58;;;;;;;28.67;20.60;;;;;;;;;;4983777;28;20062;-83
2023/10/27 00:23:24;;;;;;;30.38;22.38;;;;;;;;;;4979593;28;20134;-84
2023/10/27 00:25:51;;;;;;;29.13;20.52;;;;;;;;;;4983920;28;20047;-84
2023/10/27 00:28:17;;;;;;;29.00;20.27;;;;;;;;;;4984229;28;20046;-84
2023/10/27 00:30:43;;;;;;;28.55;20.67;;;;;;;;;;4984372;28;20136;-84
2023/10/27 00:33:09;;;;;;;31.02;20.70;;;;;;;;;;4984871;28;20447;-84
2023/10/27 00:35:35;;;;;;;29.70;19.92;;;;;;;;;;4983403;28;20110;-83
2023/10/27 00:38:01;;;;;;;29.42;19.83;;;;;;;;;;4983163;28;20093;-84
2023/10/27 00:40:28;;;;;;;30.33;20.00;;;;;;;;;;4982772;28;20047;-84
2023/10/27 00:42:56;;;;;;;28.23;20.05;;;;;;;;;;4984971;28;20047;-84
2023/10/27 00:45:22;;;;;;;29.27;19.88;;;;;;;;;;4983940;28;20082;-84
2023/10/27 00:47:48;;;;;;;30.80;19.90;;;;;;;;;;4983981;28;20050;-84
2023/10/27 00:50:14;;;;;;;28.17;20.25;;;;;;;;;;4984085;28;20085;-84
2023/10/27 00:52:41;;;;;;;30.45;20.65;;;;;;;;;;4984040;28;20495;-85
2023/10/27 00:55:07;;;;;;;29.63;19.05;;;;;;;;;;4984420;28;20122;-84
2023/10/27 00:57:34;;;;;;;29.65;19.80;;;;;;;;;;4983286;28;20500;-84
2023/10/27 01:00:00;;;;;;;31.15;19.98;;;;;;;;;;4982198;28;20053;-84
2023/10/27 01:02:26;;;;;;;29.55;20.05;;;;;;;;;;4981089;28;20050;-84
2023/10/27 01:04:52;;;;;;;30.85;19.90;;;;;;;;;;4984711;28;20126;-84
2023/10/27 01:07:20;;;;;;;30.38;19.83;;;;;;;;;;4982925;28;20053;-83
2023/10/27 01:09:46;;;;;;;30.48;20.77;;;;;;;;;;4981620;28;20051;-84
2023/10/27 01:12:12;;;;;;;29.45;20.48;;;;;;;;;;4982616;28;20129;-84
2023/10/27 01:14:38;;;;;;;30.75;20.38;;;;;;;;;;4982869;28;20042;-84
2023/10/27 01:17:05;;;;;;;28.10;19.40;;;;;;;;;;4983200;28;20071;-83
2023/10/27 01:19:31;;;;;;;29.83;20.02;;;;;;;;;;4981551;28;20153;-84
2023/10/27 01:21:57;;;;;;;30.48;20.55;;;;;;;;;;4981106;28;20416;-84
2023/10/27 01:24:23;;;;;;;29.58;20.73;;;;;;;;;;4982002;28;20047;-84
2023/10/27 01:26:50;;;;;;;33.05;21.25;;;;;;;;;;4965622;28;20054;-84
2023/10/27 01:29:16;;;;;;;31.40;21.23;;;;;;;;;;4983192;28;20067;-84
2023/10/27 01:31:42;;;;;;;30.77;20.83;;;;;;;;;;4977507;28;20043;-83
2023/10/27 01:34:08;;;;;;;32.55;21.00;;;;;;;;;;4964024;29;20050;-83
2023/10/27 01:36:34;;;;;;;31.38;20.15;;;;;;;;;;4976461;28;20054;-83
2023/10/27 01:39:00;;;;;;;33.05;20.83;;;;;;;;;;4982329;28;20038;-83
2023/10/27 01:41:26;;;;;;;30.15;20.65;;;;;;;;;;4983513;28;20047;-84
2023/10/27 01:43:52;;;;;;;34.80;21.35;;;;;;;;;;4982136;28;20058;-84
2023/10/27 01:46:18;;;;;;;34.75;22.02;;;;;;;;;;4966347;28;20106;-84
2023/10/27 01:48:44;;;;;;;35.78;22.30;;;;;;;;;;4982166;28;20043;-84
2023/10/27 01:51:10;;;;;;;35.13;21.88;;;;;;;;;;4983535;28;20075;-85
2023/10/27 01:53:36;;;;;;;39.92;24.35;;;;;;;;;;4983285;28;20069;-84
2023/10/27 01:56:02;;;;;;;41.78;22.65;;;;;;;;;;4982816;28;20075;-84
2023/10/27 01:58:29;;;;;;;34.70;20.13;;;;;;;;;;4985673;28;20050;-85
2023/10/27 02:01:21;;;;;;;35.75;22.55;;;;;;;;;;4986246;28;20038;-84
2023/10/27 02:03:47;;;;;;;38.67;22.85;;;;;;;;;;4987377;28;20050;-84
2023/10/27 02:06:13;;;;;;;34.70;21.23;;;;;;;;;;4987299;28;20113;-84
2023/10/27 02:08:39;;;;;;;38.08;23.30;;;;;;;;;;4985345;28;20051;-84
2023/10/27 02:11:06;;;;;;;37.63;22.60;;;;;;;;;;4978399;28;20464;-84
2023/10/27 02:13:32;;;;;;;37.58;22.38;;;;;;;;;;4985902;28;20451;-84
2023/10/27 02:15:58;;;;;;;37.92;21.70;;;;;;;;;;4983765;28;20047;-84
2023/10/27 02:18:24;;;;;;;36.75;21.38;;;;;;;;;;4984891;28;20093;-84
2023/10/27 02:20:50;;;;;;;36.85;21.27;;;;;;;;;;4985696;28;20043;-84
2023/10/27 02:23:16;;;;;;;33.42;20.13;;;;;;;;;;4986042;28;20121;-84
2023/10/27 02:25:42;;;;;;;36.85;20.95;;;;;;;;;;4981509;28;20133;-84
2023/10/27 02:28:08;;;;;;;34.33;21.23;;;;;;;;;;4986566;28;20043;-84
2023/10/27 02:30:34;;;;;;;37.17;21.70;;;;;;;;;;4985405;28;20093;-84
2023/10/27 02:33:00;;;;;;;33.83;20.27;;;;;;;;;;4986460;28;20046;-84
2023/10/27 02:35:26;;;;;;;32.15;19.38;;;;;;;;;;4985073;28;20043;-84
2023/10/27 02:37:54;;;;;;;32.83;20.15;;;;;;;;;;4985356;28;20050;-84
2023/10/27 02:40:21;;;;;;;31.52;20.00;;;;;;;;;;4984252;28;20123;-84
2023/10/27 02:42:47;;;;;;;31.27;19.60;;;;;;;;;;4985143;28;20053;-84
2023/10/27 02:45:13;;;;;;;36.90;19.73;;;;;;;;;;4984979;28;20102;-84
2023/10/27 02:47:39;;;;;;;37.00;19.65;;;;;;;;;;4984763;28;20043;-84
2023/10/27 02:50:05;;;;;;;32.47;19.02;;;;;;;;;;4986947;28;20046;-85
2023/10/27 02:52:31;;;;;;;32.45;17.73;;;;;;;;;;4985435;28;20567;-84
2023/10/27 02:54:57;;;;;;;31.55;18.65;;;;;;;;;;4966747;28;20196;-84
2023/10/27 02:57:23;;;;;;;34.25;19.30;;;;;;;;;;4985400;28;20054;-84
2023/10/27 02:59:49;;;;;;;30.58;18.25;;;;;;;;;;4985649;28;20078;-84
2023/10/27 03:02:15;;;;;;;33.17;19.23;;;;;;;;;;4985134;28;20058;-84
2023/10/27 03:04:42;;;;;;;32.00;18.30;;;;;;;;;;4985087;28;20046;-84
2023/10/27 03:07:08;;;;;;;36.08;18.35;;;;;;;;;;4979975;28;20046;-84
2023/10/27 03:09:34;;;;;;;27.95;17.88;;;;;;;;;;4987163;28;20047;-84
2023/10/27 03:12:00;;;;;;;33.63;19.25;;;;;;;;;;4967771;28;20121;-84
2023/10/27 03:14:26;;;;;;;32.72;18.77;;;;;;;;;;4991720;28;20131;-84
2023/10/27 03:16:52;;;;;;;32.90;18.65;;;;;;;;;;4992285;28;20043;-85
2023/10/27 03:19:18;;;;;;;40.00;20.25;;;;;;;;;;4975666;28;20108;-85
2023/10/27 03:21:44;;;;;;;31.77;18.67;;;;;;;;;;4983560;28;20051;-84
2023/10/27 03:24:10;;;;;;;29.02;17.58;;;;;;;;;;4983650;28;20075;-84
2023/10/27 03:26:36;;;;;;;31.42;17.73;;;;;;;;;;4977601;28;20047;-85
2023/10/27 03:29:03;;;;;;;31.95;18.35;;;;;;;;;;4985173;28;20038;-85
2023/10/27 03:31:29;;;;;;;30.55;18.23;;;;;;;;;;4972692;28;20505;-84
2023/10/27 03:33:55;;;;;;;27.70;16.55;;;;;;;;;;4984946;28;20042;-84
2023/10/27 03:36:21;;;;;;;26.77;16.58;;;;;;;;;;4985117;28;20103;-84
2023/10/27 03:38:47;;;;;;;27.15;16.35;;;;;;;;;;4968743;28;20060;-85
2023/10/27 03:41:13;;;;;;;25.27;16.92;;;;;;;;;;4985966;28;20047;-84
2023/10/27 03:43:39;;;;;;;25.90;16.10;;;;;;;;;;4985919;28;20046;-84
2023/10/27 03:46:07;;;;;;;26.88;16.80;;;;;;;;;;4985605;28;20098;-83
2023/10/27 03:48:34;;;;;;;25.60;16.08;;;;;;;;;;4972806;28;20122;-84
2023/10/27 03:51:03;;;;;;;27.20;16.48;;;;;;;;;;4967233;28;20047;-84
2023/10/27 03:53:30;;;;;;;29.38;16.25;;;;;;;;;;4965025;29;20055;-84
2023/10/27 03:55:56;;;;;;;28.65;17.45;;;;;;;;;;4977592;28;20447;-84
2023/10/27 03:58:22;;;;;;;27.17;16.00;;;;;;;;;;4984684;28;20073;-84
2023/10/27 04:00:48;;;;;;;25.50;15.32;;;;;;;;;;4982405;28;20058;-84
2023/10/27 04:03:14;;;;;;;29.40;16.60;;;;;;;;;;4984445;28;20053;-84
2023/10/27 04:05:40;;;;;;;27.05;15.48;;;;;;;;;;4982540;28;20049;-84
2023/10/27 04:08:06;;;;;;;25.45;16.05;;;;;;;;;;4984380;28;20115;-84
2023/10/27 04:10:33;;;;;;;27.58;15.38;;;;;;;;;;4984713;28;20050;-84
2023/10/27 04:12:59;;;;;;;25.73;15.35;;;;;;;;;;4982623;28;20089;-84
2023/10/27 04:15:26;;;;;;;27.75;16.27;;;;;;;;;;4982851;28;20039;-85
2023/10/27 04:17:52;;;;;;;25.13;15.48;;;;;;;;;;4965116;28;20096;-85
2023/10/27 04:20:17;;;;;;;23.35;14.55;;;;;;;;;;4983097;28;20070;-84
2023/10/27 04:22:44;;;;;;;26.48;14.90;;;;;;;;;;4982514;28;20054;-84
2023/10/27 04:25:10;;;;;;;23.30;14.35;;;;;;;;;;4983276;28;20046;-84
2023/10/27 04:27:39;;;;;;;27.42;14.90;;;;;;;;;;4983163;28;20043;-84
2023/10/27 04:30:07;;;;;;;27.10;14.55;;;;;;;;;;4981146;28;20385;-84
2023/10/27 04:32:37;;;;;;;24.08;14.45;;;;;;;;;;4982453;28;20043;-84
2023/10/27 04:35:04;;;;;;;24.70;14.88;;;;;;;;;;4982603;28;20055;-84
2023/10/27 04:37:33;;;;;;;22.63;13.85;;;;;;;;;;4982719;28;20125;-84
2023/10/27 04:40:00;;;;;;;24.10;14.27;;;;;;;;;;4980479;28;20056;-84
2023/10/27 04:42:26;;;;;;;24.20;14.35;;;;;;;;;;4982689;28;20098;-84
2023/10/27 04:44:52;;;;;;;25.38;14.93;;;;;;;;;;4983809;28;20460;-84
2023/10/27 04:47:19;;;;;;;25.38;13.98;;;;;;;;;;4981047;28;20050;-84
2023/10/27 04:49:45;;;;;;;24.95;14.77;;;;;;;;;;4980153;28;20503;-84
2023/10/27 04:52:11;;;;;;;24.70;14.70;;;;;;;;;;4979820;28;20054;-84
2023/10/27 04:54:37;;;;;;;24.27;15.07;;;;;;;;;;4980779;28;20061;-85
2023/10/27 04:57:04;;;;;;;22.83;14.00;;;;;;;;;;4979442;28;20121;-84
2023/10/27 04:59:30;;;;;;;23.50;14.27;;;;;;;;;;4977229;28;20063;-84
2023/10/27 05:01:56;;;;;;;26.52;15.27;;;;;;;;;;4982329;28;20078;-84
2023/10/27 05:04:22;;;;;;;25.13;15.70;;;;;;;;;;4976419;28;20101;-84
2023/10/27 05:06:48;;;;;;;24.52;14.23;;;;;;;;;;4983106;28;20120;-84
2023/10/27 05:09:15;;;;;;;23.77;13.88;;;;;;;;;;4982158;28;20492;-84
2023/10/27 05:11:42;;;;;;;23.80;14.35;;;;;;;;;;4983006;28;20069;-84
2023/10/27 05:14:08;;;;;;;27.10;14.77;;;;;;;;;;4980653;28;20046;-85
2023/10/27 05:16:34;;;;;;;26.90;17.25;;;;;;;;;;4979198;28;20043;-85
2023/10/27 05:19:00;;;;;;;25.45;16.33;;;;;;;;;;4982417;28;20046;-84
2023/10/27 05:21:29;;;;;;;28.35;16.15;;;;;;;;;;4982586;28;20125;-84
2023/10/27 05:23:56;;;;;;;32.92;17.02;;;;;;;;;;4982428;28;20420;-84
2023/10/27 05:26:22;;;;;;;25.40;16.23;;;;;;;;;;4982503;28;20097;-84
2023/10/27 05:28:52;;;;;;;30.88;16.73;;;;;;;;;;4982043;28;20058;-85
2023/10/27 05:31:18;;;;;;;30.73;17.00;;;;;;;;;;4981596;28;20117;-84
2023/10/27 05:33:44;;;;;;;31.55;18.40;;;;;;;;;;4980609;28;20061;-84
2023/10/27 05:36:10;;;;;;;33.97;19.55;;;;;;;;;;4980896;28;20058;-84
2023/10/27 05:38:36;;;;;;;31.45;17.75;;;;;;;;;;4982770;28;20054;-84
2023/10/27 05:41:03;;;;;;;32.03;18.23;;;;;;;;;;4982343;28;20043;-84
2023/10/27 05:43:29;;;;;;;33.28;18.38;;;;;;;;;;4982237;28;20085;-84
2023/10/27 05:45:55;;;;;;;36.28;19.85;;;;;;;;;;4982407;28;20061;-84
2023/10/27 05:48:21;;;;;;;29.90;18.17;;;;;;;;;;4982228;28;20047;-84
2023/10/27 05:50:47;;;;;;;30.58;17.38;;;;;;;;;;4981796;28;20050;-84
2023/10/27 05:53:15;;;;;;;30.00;17.45;;;;;;;;;;4981297;28;20472;-84
2023/10/27 05:55:44;;;;;;;30.35;19.42;;;;;;;;;;4981727;28;20051;-84
2023/10/27 05:58:10;;;;;;;30.65;17.92;;;;;;;;;;4982971;28;20055;-84
2023/10/27 06:00:36;;;;;;;29.05;17.80;;;;;;;;;;4981667;28;20417;-84
2023/10/27 06:03:03;;;;;;;32.42;17.83;;;;;;;;;;4981709;28;20078;-84
2023/10/27 06:05:29;;;;;;;32.38;17.70;;;;;;;;;;4982628;28;20061;-83
2023/10/27 06:07:55;;;;;;;31.77;18.10;;;;;;;;;;4981441;28;20050;-84
2023/10/27 06:10:21;;;;;;;35.55;18.58;;;;;;;;;;4982372;28;20050;-84
2023/10/27 06:12:47;;;;;;;33.45;17.60;;;;;;;;;;4981297;28;20047;-84
2023/10/27 06:15:13;;;;;;;30.55;17.95;;;;;;;;;;4980407;28;20053;-84
2023/10/27 06:17:39;;;;;;;31.85;18.75;;;;;;;;;;4979652;28;20050;-84
2023/10/27 06:20:06;;;;;;;32.33;18.85;;;;;;;;;;4977991;28;20046;-85
2023/10/27 06:22:32;;;;;;;33.90;19.15;;;;;;;;;;4978071;28;20146;-84
2023/10/27 06:24:58;;;;;;;31.95;17.75;;;;;;;;;;4977702;28;20457;-84
2023/10/27 06:27:24;;;;;;;31.40;17.48;;;;;;;;;;4977552;28;20054;-84
2023/10/27 06:29:50;;;;;;;30.95;18.38;;;;;;;;;;4977222;28;20101;-84
2023/10/27 06:32:16;;;;;;;30.88;19.35;;;;;;;;;;4970852;28;20137;-84
2023/10/27 06:34:43;;;;;;;32.05;19.08;;;;;;;;;;4976396;28;20043;-84
2023/10/27 06:37:09;;;;;;;35.25;21.15;;;;;;;;;;4968140;28;20111;-85
2023/10/27 06:39:35;;;;;;;76.70;46.50;;;;;;;;;;4977486;28;20456;-85
2023/10/27 06:42:02;;;;;;;42.30;24.63;;;;;;;;;;4981010;28;20050;-84
2023/10/27 06:44:28;;;;;;;36.10;21.35;;;;;;;;;;4983684;28;20042;-84
2023/10/27 06:46:56;;;;;;;37.03;21.80;;;;;;;;;;4986348;28;20066;-84
2023/10/27 06:49:22;;;;;;;33.42;21.92;;;;;;;;;;4968339;28;20058;-84
2023/10/27 06:51:48;;;;;;;31.85;18.83;;;;;;;;;;4985024;28;20491;-84
2023/10/27 06:54:14;;;;;;;31.58;17.52;;;;;;;;;;4996749;28;20047;-84
2023/10/27 06:56:41;;;;;;;32.28;18.42;;;;;;;;;;4989739;28;20046;-84
2023/10/27 06:59:07;;;;;;;36.97;19.02;;;;;;;;;;4993649;28;20059;-85
2023/10/27 07:01:34;;;;;;;32.72;18.85;;;;;;;;;;4985225;28;20472;-84
2023/10/27 07:04:00;;;;;;;33.10;17.55;;;;;;;;;;4984637;28;20047;-81
2023/10/27 07:06:26;;;;;;;32.83;18.23;;;;;;;;;;4983983;28;20046;-83
2023/10/27 07:08:52;;;;;;;33.22;19.05;;;;;;;;;;4984562;28;20055;-84
2023/10/27 07:11:18;;;;;;;32.45;17.50;;;;;;;;;;4985047;28;20485;-85
2023/10/27 07:13:44;;;;;;;33.70;18.52;;;;;;;;;;4985352;28;20539;-83
2023/10/27 07:16:10;;;;;;;30.35;18.35;;;;;;;;;;4986408;28;20482;-83
2023/10/27 07:18:36;;;;;;;34.22;18.90;;;;;;;;;;4985767;28;20065;-84
2023/10/27 07:21:05;;;;;;;36.10;21.55;;;;;;;;;;4984879;28;20050;-83
2023/10/27 07:23:31;;;;;;;34.58;20.52;;;;;;;;;;4983499;28;20051;-80
2023/10/27 07:25:57;;;;;;;33.85;18.58;;;;;;;;;;4982273;28;20050;-81
2023/10/27 07:28:23;;;;;;;35.13;20.17;;;;;;;;;;4976941;28;20484;-84
2023/10/27 07:30:50;;;;;;;33.47;19.13;;;;;;;;;;4986526;28;20058;-83
2023/10/27 07:33:16;;;;;;;30.48;18.48;;;;;;;;;;4985637;28;20047;-83
2023/10/27 07:35:42;;;;;;;27.90;17.63;;;;;;;;;;4986242;28;20066;-83
2023/10/27 07:38:08;;;;;;;27.77;17.27;;;;;;;;;;4968194;28;20054;-84
2023/10/27 07:40:35;;;;;;;31.10;18.55;;;;;;;;;;4985537;28;20130;-83
2023/10/27 07:43:01;;;;;;;29.85;18.25;;;;;;;;;;4986723;28;20456;-83
2023/10/27 07:45:27;;;;;;;28.50;17.77;;;;;;;;;;4985224;28;20054;-83
2023/10/27 07:47:54;;;;;;;27.30;17.83;;;;;;;;;;4998728;28;20476;-84
2023/10/27 07:50:20;;;;;;;29.20;17.90;;;;;;;;;;4984928;28;20473;-84
2023/10/27 07:52:46;;;;;;;27.50;17.58;;;;;;;;;;4986352;28;20054;-84
2023/10/27 07:55:12;;;;;;;27.15;16.95;;;;;;;;;;4967930;28;20053;-83
2023/10/27 07:57:38;;;;;;;29.30;17.55;;;;;;;;;;4985872;28;20131;-83
2023/10/27 08:00:09;;;;;;;27.48;17.90;;;;;;;;;;4985453;28;20090;-84
2023/10/27 08:02:35;;;;;;;25.90;17.55;;;;;;;;;;4985863;28;20122;-83
2023/10/27 08:05:01;;;;;;;28.95;17.00;;;;;;;;;;4985504;28;20050;-84
2023/10/27 08:07:28;;;;;;;29.10;17.30;;;;;;;;;;4985193;28;20078;-83
2023/10/27 08:09:56;;;;;;;27.02;17.58;;;;;;;;;;4985072;28;20138;-84
2023/10/27 08:12:22;;;;;;;27.42;18.33;;;;;;;;;;4983776;28;20057;-82
2023/10/27 08:14:48;;;;;;;25.38;17.10;;;;;;;;;;4984556;28;20077;-83
2023/10/27 08:17:17;;;;;;;29.98;18.42;;;;;;;;;;4984940;28;20066;-84
2023/10/27 08:19:43;;;;;;;27.35;16.50;;;;;;;;;;4965503;28;20611;-83
2023/10/27 08:22:09;;;;;;;25.02;16.73;;;;;;;;;;4966994;28;20110;-83
2023/10/27 08:24:36;;;;;;;27.38;17.67;;;;;;;;;;4983887;28;20094;-83
2023/10/27 08:27:02;;;;;;;27.70;17.75;;;;;;;;;;4984390;28;20062;-83
2023/10/27 08:29:28;;;;;;;28.38;18.13;;;;;;;;;;4985364;28;20110;-84
2023/10/27 08:31:54;;;;;;;24.77;16.25;;;;;;;;;;4984630;28;20123;-83
2023/10/27 08:34:21;;;;;;;27.25;17.27;;;;;;;;;;4984200;28;20459;-83
2023/10/27 08:36:47;;;;;;;27.67;17.63;;;;;;;;;;4984858;28;20105;-84
2023/10/27 08:39:14;;;;;;;26.00;16.95;;;;;;;;;;4983681;28;20109;-80
2023/10/27 08:41:40;;;;;;;26.52;18.40;;;;;;;;;;4984088;28;20046;-80
2023/10/27 08:44:07;;;;;;;26.50;17.42;;;;;;;;;;4983148;28;20055;-81
2023/10/27 08:46:34;;;;;;;25.83;17.45;;;;;;;;;;4983440;28;20107;-79
2023/10/27 08:49:00;;;;;;;25.02;16.98;;;;;;;;;;4984432;28;20055;-80
2023/10/27 08:51:27;;;;;;;28.10;20.08;;;;;;;;;;4984248;28;20038;-80
2023/10/27 08:53:53;;;;;;;26.58;18.02;;;;;;;;;;4983583;28;20489;-80
2023/10/27 08:56:19;;;;;;;27.08;18.60;;;;;;;;;;4983477;28;20050;-80
2023/10/27 08:58:51;;;;;;;24.40;17.15;;;;;;;;;;4984016;28;20114;-80
2023/10/27 09:01:17;;;;;;;26.70;18.02;;;;;;;;;;4984242;28;20049;-81
2023/10/27 09:04:04;;;;;;;25.58;18.45;;;;;;;;;;4983220;28;20057;-80
2023/10/27 09:06:30;;;;;;;24.92;17.77;;;;;;;;;;4983359;28;20078;-80
2023/10/27 09:08:56;;;;;;;26.35;17.95;;;;;;;;;;4984793;28;20090;-81
2023/10/27 09:11:22;;;;;;;28.42;19.40;;;;;;;;;;4984068;28;20058;-80
2023/10/27 09:13:48;;;;;;;28.55;19.17;;;;;;;;;;4984818;28;20051;-80
2023/10/27 09:16:24;;;;;;;26.02;17.38;;;;;;;;;;4982597;28;20081;-81
2023/10/27 09:18:51;;;;;;;25.13;17.50;;;;;;;;;;4984827;28;20043;-81
2023/10/27 09:21:29;;;;;;;24.75;18.33;;;;;;;;;;4988204;28;20046;-81
2023/10/27 09:23:55;;;;;;;28.00;18.15;;;;;;;;;;4985333;28;20055;-81
2023/10/27 09:26:27;;;;;;;26.30;18.00;;;;;;;;;;4984358;28;20077;-83
2023/10/27 09:29:01;;;;;;;26.92;18.33;;;;;;;;;;4984782;28;20074;-83
2023/10/27 09:31:33;;;;;;;22.52;16.73;;;;;;;;;;4984284;28;20047;-83
2023/10/27 09:34:19;;;;;;;25.70;16.65;;;;;;;;;;4979016;28;20058;-82
2023/10/27 09:36:46;;;;;;;22.17;16.27;;;;;;;;;;4977200;28;20128;-82
2023/10/27 09:39:23;;;;;;;24.20;17.70;;;;;;;;;;4982319;28;20051;-83
2023/10/27 09:42:02;;;;;;;24.13;16.95;;;;;;;;;;4994590;28;20054;-82
2023/10/27 09:44:42;;;;;;;24.75;16.95;;;;;;;;;;5001067;28;20113;-82
2023/10/27 09:47:18;;;;;;;23.92;17.10;;;;;;;;;;4985763;28;20043;-82
2023/10/27 09:49:47;;;;;;;22.95;16.25;;;;;;;;;;4989242;28;20046;-80
2023/10/27 09:52:18;;;;;;;23.17;16.38;;;;;;;;;;4980167;28;20043;-81
2023/10/27 09:54:44;;;;;;;20.45;15.27;;;;;;;;;;4980986;28;20129;-82
2023/10/27 09:57:11;;;;;;;23.15;15.95;;;;;;;;;;4984894;28;20055;-81
2023/10/27 09:59:37;;;;;;;21.02;16.00;;;;;;;;;;4984539;28;20114;-82
2023/10/27 10:02:05;;;;;;;20.48;16.33;;;;;;;;;;4984913;28;20077;-82
2023/10/27 10:04:50;;;;;;;23.35;16.75;;;;;;;;;;4984788;28;20051;-82
2023/10/27 10:07:35;;;;;;;23.85;16.48;;;;;;;;;;4975530;28;20050;-82
2023/10/27 10:10:20;;;;;;;22.35;15.45;;;;;;;;;;4963110;29;20270;-83
2023/10/27 10:12:59;;;;;;;21.88;15.93;;;;;;;;;;4973184;28;20039;-84
2023/10/27 10:15:26;;;;;;;19.00;16.00;;;;;;;;;;4981720;28;20141;-83
2023/10/27 10:17:52;;;;;;;21.30;15.98;;;;;;;;;;4983723;28;20043;-82
2023/10/27 10:20:41;;;;;;;25.67;20.67;;;;;;;;;;4986516;28;20547;-83
2023/10/27 10:23:07;;;;;;;23.20;16.65;;;;;;;;;;4986882;28;20481;-82
2023/10/27 10:25:34;;;;;;;29.35;24.65;;;;;;;;;;4985386;28;20051;-82
2023/10/27 10:28:09;;;;;;;23.58;19.48;;;;;;;;;;4987365;28;20050;-82
2023/10/27 10:30:37;;;;;;;20.88;17.00;;;;;;;;;;4986992;28;20050;-82
2023/10/27 10:33:21;;;;;;;43.60;37.33;;;;;;;;;;4988093;28;20094;-82
2023/10/27 10:35:48;;;;;;;33.08;28.90;;;;;;;;;;4988538;28;20058;-81
2023/10/27 10:38:21;;;;;;;27.17;20.90;;;;;;;;;;4971184;28;20055;-79
2023/10/27 10:40:57;;;;;;;28.50;25.40;;;;;;;;;;4966116;28;20138;-82
2023/10/27 10:43:24;;;;;;;26.38;20.20;;;;;;;;;;4969281;28;20076;-82
2023/10/27 10:45:56;;;;;;;24.83;19.25;;;;;;;;;;4987477;28;20070;-82
2023/10/27 10:48:24;;;;;;;28.77;24.67;;;;;;;;;;4988449;28;20104;-83
2023/10/27 10:50:51;;;;;;;23.75;18.58;;;;;;;;;;4986870;28;20082;-83
2023/10/27 10:53:23;;;;;;;25.38;19.00;;;;;;;;;;4986783;28;20077;-82
2023/10/27 10:55:50;;;;;;;22.40;18.17;;;;;;;;;;4987485;28;20058;-82
2023/10/27 10:58:23;;;;;;;21.17;17.38;;;;;;;;;;4986801;28;20038;-82
2023/10/27 11:00:49;;;;;;;24.23;18.20;;;;;;;;;;4987701;28;20083;-82
2023/10/27 11:03:15;;;;;;;25.00;17.83;;;;;;;;;;4986666;28;20043;-82
2023/10/27 11:05:42;;;;;;;21.83;17.40;;;;;;;;;;4986756;28;20462;-82
2023/10/27 11:08:08;;;;;;;26.08;18.85;;;;;;;;;;4986173;28;20043;-83
2023/10/27 11:10:37;;;;;;;25.65;18.15;;;;;;;;;;4973523;28;20055;-82
2023/10/27 11:13:06;;;;;;;24.05;18.30;;;;;;;;;;4966050;28;20039;-82
2023/10/27 11:15:51;;;;;;;25.05;18.33;;;;;;;;;;4976615;28;20516;-82
2023/10/27 11:18:18;;;;;;;22.23;17.40;;;;;;;;;;4964894;28;20048;-81
2023/10/27 11:20:44;;;;;;;26.15;18.48;;;;;;;;;;4969068;28;20077;-82
2023/10/27 11:23:11;;;;;;;24.48;18.40;;;;;;;;;;4984861;28;20059;-81
2023/10/27 11:25:38;;;;;;;25.10;19.50;;;;;;;;;;4985509;28;20496;-81
2023/10/27 11:28:20;;;;;;;26.17;20.25;;;;;;;;;;4967585;28;20101;-81
2023/10/27 11:31:08;;;;;;;24.58;18.90;;;;;;;;;;4984302;28;20096;-82
2023/10/27 11:33:53;;;;;;;25.02;19.23;;;;;;;;;;4982741;28;20043;-82
2023/10/27 11:36:19;;;;;;;27.02;20.17;;;;;;;;;;4984837;28;20050;-82
2023/10/27 11:38:45;;;;;;;24.92;19.30;;;;;;;;;;4984424;28;20116;-82
2023/10/27 11:41:15;;;;;;;25.60;20.15;;;;;;;;;;4984419;28;20055;-82
2023/10/27 11:43:41;;;;;;;26.35;19.80;;;;;;;;;;4982803;28;20163;-82
2023/10/27 11:46:11;;;;;;;25.30;19.48;;;;;;;;;;4984019;28;20053;-82
2023/10/27 11:48:37;;;;;;;24.85;19.33;;;;;;;;;;4981649;28;20126;-82
2023/10/27 11:51:04;;;;;;;23.63;19.15;;;;;;;;;;4974419;28;20106;-81
2023/10/27 11:53:30;;;;;;;23.27;18.40;;;;;;;;;;4964140;29;20362;-82
2023/10/27 11:55:56;;;;;;;23.20;18.40;;;;;;;;;;4986856;28;20063;-82
2023/10/27 11:58:22;;;;;;;27.17;20.55;;;;;;;;;;4983552;28;20058;-82
2023/10/27 12:00:48;;;;;;;25.40;19.77;;;;;;;;;;4984013;28;20400;-81
2023/10/27 12:03:14;;;;;;;27.23;20.60;;;;;;;;;;4982187;28;20075;-81
2023/10/27 12:05:41;;;;;;;27.48;20.58;;;;;;;;;;4983947;28;20484;-81
2023/10/27 12:08:07;;;;;;;26.73;20.75;;;;;;;;;;4983565;28;20160;-81
2023/10/27 12:10:33;;;;;;;25.08;19.38;;;;;;;;;;4981853;28;20069;-81
2023/10/27 12:12:59;;;;;;;27.10;19.90;;;;;;;;;;4983831;28;20057;-82
2023/10/27 12:15:25;;;;;;;26.77;21.33;;;;;;;;;;4983102;28;20062;-82
2023/10/27 12:17:51;;;;;;;25.70;20.55;;;;;;;;;;4983137;28;20042;-82
2023/10/27 12:20:17;;;;;;;28.38;21.02;;;;;;;;;;4983098;28;20055;-82
2023/10/27 12:22:46;;;;;;;30.08;20.30;;;;;;;;;;4982953;28;20051;-82
2023/10/27 12:25:13;;;;;;;30.98;22.13;;;;;;;;;;4982937;28;20469;-82
2023/10/27 12:27:46;;;;;;;27.08;21.63;;;;;;;;;;4983486;28;20125;-82
2023/10/27 12:30:13;;;;;;;26.80;20.77;;;;;;;;;;4984674;28;20057;-82
2023/10/27 12:32:40;;;;;;;30.45;22.73;;;;;;;;;;4987312;28;20054;-82
2023/10/27 12:35:07;;;;;;;31.75;22.15;;;;;;;;;;4983462;28;20058;-82
2023/10/27 12:37:33;;;;;;;29.90;21.70;;;;;;;;;;4981550;28;20082;-82
2023/10/27 12:39:59;;;;;;;35.15;23.98;;;;;;;;;;4978363;28;20097;-82
2023/10/27 12:42:26;;;;;;;29.30;22.50;;;;;;;;;;4981229;28;20047;-82
2023/10/27 12:44:52;;;;;;;30.67;22.17;;;;;;;;;;4976252;28;20073;-82
2023/10/27 12:47:18;;;;;;;30.88;22.73;;;;;;;;;;4967965;28;20094;-82
2023/10/27 12:49:44;;;;;;;29.60;21.08;;;;;;;;;;4963755;29;20055;-82
2023/10/27 12:52:10;;;;;;;28.70;20.35;;;;;;;;;;4978754;28;20435;-82
2023/10/27 12:54:37;;;;;;;33.80;21.92;;;;;;;;;;4980153;28;20227;-83
2023/10/27 12:57:03;;;;;;;30.38;21.55;;;;;;;;;;4981893;28;20073;-83
2023/10/27 12:59:30;;;;;;;34.03;22.52;;;;;;;;;;4981559;28;20179;-83
2023/10/27 13:01:57;;;;;;;29.65;22.42;;;;;;;;;;4980906;28;20074;-82
2023/10/27 13:04:26;;;;;;;30.33;21.30;;;;;;;;;;4982200;28;20145;-83
2023/10/27 13:06:52;;;;;;;30.02;21.10;;;;;;;;;;4971569;28;20039;-82
2023/10/27 13:09:19;;;;;;;29.77;21.05;;;;;;;;;;4981409;28;20043;-82
2023/10/27 13:11:45;;;;;;;29.15;21.33;;;;;;;;;;4978758;28;20051;-82
2023/10/27 13:14:11;;;;;;;31.08;21.55;;;;;;;;;;4980839;28;20102;-83
2023/10/27 13:16:41;;;;;;;27.02;19.65;;;;;;;;;;4981136;28;20055;-82
2023/10/27 13:19:10;;;;;;;26.30;19.35;;;;;;;;;;4981290;28;20061;-82
2023/10/27 13:21:36;;;;;;;25.85;18.33;;;;;;;;;;4979603;28;20154;-82
2023/10/27 13:24:03;;;;;;;25.15;18.35;;;;;;;;;;4965097;28;20050;-82
2023/10/27 13:26:29;;;;;;;29.63;20.13;;;;;;;;;;4990863;28;20049;-82
2023/10/27 13:28:57;;;;;;;25.13;17.52;;;;;;;;;;4997795;28;20141;-82
2023/10/27 13:31:23;;;;;;;25.73;18.20;;;;;;;;;;4977702;28;20055;-82
2023/10/27 13:33:49;;;;;;;26.08;17.15;;;;;;;;;;4976092;28;20039;-82
2023/10/27 13:36:17;;;;;;;23.45;17.02;;;;;;;;;;4977907;28;20078;-82
2023/10/27 13:38:43;;;;;;;24.85;17.83;;;;;;;;;;4981404;28;20500;-82
2023/10/27 13:41:18;;;;;;;23.70;16.45;;;;;;;;;;4981202;28;20070;-82
2023/10/27 13:43:45;;;;;;;26.40;16.88;;;;;;;;;;4964136;28;20043;-82
2023/10/27 13:46:14;;;;;;;23.77;17.30;;;;;;;;;;4991960;28;20042;-82
2023/10/27 13:48:40;;;;;;;23.35;16.38;;;;;;;;;;4977919;28;20054;-83
2023/10/27 13:51:07;;;;;;;24.35;17.02;;;;;;;;;;4978516;28;20129;-83
2023/10/27 13:53:34;;;;;;;27.80;18.17;;;;;;;;;;4981121;28;20071;-83
2023/10/27 13:56:00;;;;;;;29.67;18.42;;;;;;;;;;4983118;28;20078;-83
2023/10/27 13:58:26;;;;;;;30.20;18.55;;;;;;;;;;4982155;28;20086;-83
2023/10/27 14:00:52;;;;;;;27.50;17.60;;;;;;;;;;4983548;28;20491;-83
2023/10/27 14:03:18;;;;;;;25.88;17.15;;;;;;;;;;4973323;28;20058;-83
2023/10/27 14:05:49;;;;;;;26.48;17.52;;;;;;;;;;4981781;28;20106;-83
2023/10/27 14:08:15;;;;;;;27.90;18.50;;;;;;;;;;4983503;28;20184;-83
2023/10/27 14:10:41;;;;;;;26.00;17.73;;;;;;;;;;4982593;28;20046;-83
2023/10/27 14:13:07;;;;;;;24.92;17.45;;;;;;;;;;4983091;28;20078;-83
2023/10/27 14:15:34;;;;;;;23.65;15.13;;;;;;;;;;4983584;28;20043;-83
2023/10/27 14:18:00;;;;;;;20.98;14.02;;;;;;;;;;4978428;28;20043;-83